CYOC

Old Crow Airport

Old Crow, , Canada
METAR CYOC 221500Z 04008G15KT 360V070 35SM FEW017 SCT050 BKN090 OVC200 04/M00 A2956 RMK SF1SC4AC3CI1 SF TR SLP024
Observed Flight Rules
May-22 @ 15:00 UTC (30 minutes ago) Visual Flight Rules
Wind Visibility Clouds
40° at 8 knots
 Gusting to 15 knots
35 miles
  • Few at 1,700' AGL
  • Scattered at 5,000' AGL
  • Broken at 9,000' AGL
  • Overcast at 20,000' AGL
Temperatures Readings
Current 4°C / 39°F
Dewpoint 0°C / 32°F
Humidity 75%
Altimeter 29.56" Hg
Pressure 1002.4 hPa
Elevation 251
METAR CYOC 221500Z 04008G15KT 360V070 35SM FEW017 SCT050 BKN090 OVC200 04/M00 A2956 RMK SF1SC4AC3CI1 SF TR SLP024
Observed Flight Rules
May-22 @ 15:00 UTC
(30 minutes ago)
VFR
Wind Visibility
40° at 8 knots
 Gusting to 15 knots
35 miles
Clouds
  • Few at 1,700' AGL
  • Scattered at 5,000' AGL
  • Broken at 9,000' AGL
  • Overcast at 20,000' AGL
Temperature Dewpoint
4°C / 39°F 0°C / 32°F
Humidity Altimeter Pressure
75% 29.56" Hg 1002.4 hPa